sensor_id;sensor_type;location;lat;lon;timestamp;temperature;humidity
32865;DHT22;19219;44.500;11.188;2023-01-29T00:01:49;1.30;99.90
32865;DHT22;19219;44.500;11.188;2023-01-29T00:04:15;1.30;99.90
32865;DHT22;19219;44.500;11.188;2023-01-29T00:06:40;1.20;99.90
32865;DHT22;19219;44.500;11.188;2023-01-29T00:09:06;1.30;99.90
32865;DHT22;19219;44.500;11.188;2023-01-29T00:11:32;1.20;99.90
32865;DHT22;19219;44.500;11.188;2023-01-29T00:13:57;1.20;99.90
32865;DHT22;19219;44.500;11.188;2023-01-29T00:16:23;1.20;99.90
32865;DHT22;19219;44.500;11.188;2023-01-29T00:18:49;1.20;99.90
32865;DHT22;19219;44.500;11.188;2023-01-29T00:21:20;1.00;99.90
32865;DHT22;19219;44.500;11.188;2023-01-29T00:23:49;1.00;99.90
32865;DHT22;19219;44.500;11.188;2023-01-29T00:26:15;1.10;99.90
32865;DHT22;19219;44.500;11.188;2023-01-29T00:28:41;1.20;99.90
32865;DHT22;19219;44.500;11.188;2023-01-29T00:31:11;1.30;99.90
32865;DHT22;19219;44.500;11.188;2023-01-29T00:33:38;1.40;99.90
32865;DHT22;19219;44.500;11.188;2023-01-29T00:36:05;1.60;99.90
32865;DHT22;19219;44.500;11.188;2023-01-29T00:38:33;1.70;99.90
32865;DHT22;19219;44.500;11.188;2023-01-29T00:41:09;1.80;99.90
32865;DHT22;19219;44.500;11.188;2023-01-29T00:43:53;2.00;99.90
32865;DHT22;19219;44.500;11.188;2023-01-29T00:46:37;2.10;99.90
32865;DHT22;19219;44.500;11.188;2023-01-29T00:49:04;2.10;99.90
32865;DHT22;19219;44.500;11.188;2023-01-29T00:51:30;2.10;99.90
32865;DHT22;19219;44.500;11.188;2023-01-29T00:53:55;2.00;99.90
32865;DHT22;19219;44.500;11.188;2023-01-29T00:56:26;2.10;99.90
32865;DHT22;19219;44.500;11.188;2023-01-29T00:58:52;2.10;99.90
32865;DHT22;19219;44.500;11.188;2023-01-29T01:01:19;2.20;99.90
32865;DHT22;19219;44.500;11.188;2023-01-29T01:04:05;2.20;99.90
32865;DHT22;19219;44.500;11.188;2023-01-29T01:06:30;2.00;99.90
32865;DHT22;19219;44.500;11.188;2023-01-29T01:08:56;2.00;99.90
32865;DHT22;19219;44.500;11.188;2023-01-29T01:11:40;1.90;99.90
32865;DHT22;19219;44.500;11.188;2023-01-29T01:14:06;1.80;99.90
32865;DHT22;19219;44.500;11.188;2023-01-29T01:16:31;1.70;99.90
32865;DHT22;19219;44.500;11.188;2023-01-29T01:18:57;1.60;99.90
32865;DHT22;19219;44.500;11.188;2023-01-29T01:21:22;1.60;99.90
32865;DHT22;19219;44.500;11.188;2023-01-29T01:23:48;1.40;99.90
32865;DHT22;19219;44.500;11.188;2023-01-29T01:26:16;1.30;99.90
32865;DHT22;19219;44.500;11.188;2023-01-29T01:28:42;1.30;99.90
32865;DHT22;19219;44.500;11.188;2023-01-29T01:31:10;1.20;99.90
32865;DHT22;19219;44.500;11.188;2023-01-29T01:33:36;1.20;99.90
32865;DHT22;19219;44.500;11.188;2023-01-29T01:36:03;1.20;99.90
32865;DHT22;19219;44.500;11.188;2023-01-29T01:38:28;1.20;99.90
32865;DHT22;19219;44.500;11.188;2023-01-29T01:40:54;1.20;99.90
32865;DHT22;19219;44.500;11.188;2023-01-29T01:43:20;1.10;99.90
32865;DHT22;19219;44.500;11.188;2023-01-29T01:45:45;1.10;99.90
32865;DHT22;19219;44.500;11.188;2023-01-29T01:50:59;1.00;99.90
32865;DHT22;19219;44.500;11.188;2023-01-29T01:53:39;1.00;99.90
32865;DHT22;19219;44.500;11.188;2023-01-29T01:56:09;1.10;99.90
32865;DHT22;19219;44.500;11.188;2023-01-29T01:58:45;1.10;99.90
32865;DHT22;19219;44.500;11.188;2023-01-29T02:01:14;1.10;99.90
32865;DHT22;19219;44.500;11.188;2023-01-29T02:03:48;1.10;99.90
32865;DHT22;19219;44.500;11.188;2023-01-29T02:06:34;1.10;99.90
32865;DHT22;19219;44.500;11.188;2023-01-29T02:09:22;1.20;99.90
32865;DHT22;19219;44.500;11.188;2023-01-29T02:12:07;1.30;99.90
32865;DHT22;19219;44.500;11.188;2023-01-29T02:14:35;1.30;99.90
32865;DHT22;19219;44.500;11.188;2023-01-29T02:17:05;1.30;99.90
32865;DHT22;19219;44.500;11.188;2023-01-29T02:19:47;1.30;99.90
32865;DHT22;19219;44.500;11.188;2023-01-29T02:30:27;0.80;99.90
32865;DHT22;19219;44.500;11.188;2023-01-29T02:35:41;0.80;99.90
32865;DHT22;19219;44.500;11.188;2023-01-29T02:38:27;0.80;99.90
32865;DHT22;19219;44.500;11.188;2023-01-29T02:41:06;0.70;99.90
32865;DHT22;19219;44.500;11.188;2023-01-29T02:43:46;0.60;99.90
32865;DHT22;19219;44.500;11.188;2023-01-29T02:48:58;0.50;99.90
32865;DHT22;19219;44.500;11.188;2023-01-29T02:51:36;0.40;99.90
32865;DHT22;19219;44.500;11.188;2023-01-29T02:56:59;0.20;99.90
32865;DHT22;19219;44.500;11.188;2023-01-29T02:59:48;0.30;99.90
32865;DHT22;19219;44.500;11.188;2023-01-29T03:02:22;0.50;99.90
32865;DHT22;19219;44.500;11.188;2023-01-29T03:04:59;0.50;99.90
32865;DHT22;19219;44.500;11.188;2023-01-29T03:07:29;0.40;99.90
32865;DHT22;19219;44.500;11.188;2023-01-29T03:10:23;0.30;99.90
32865;DHT22;19219;44.500;11.188;2023-01-29T03:12:54;0.30;99.90
32865;DHT22;19219;44.500;11.188;2023-01-29T03:16:01;0.30;99.90
32865;DHT22;19219;44.500;11.188;2023-01-29T03:18:32;0.40;99.90
32865;DHT22;19219;44.500;11.188;2023-01-29T03:21:09;0.40;99.90
32865;DHT22;19219;44.500;11.188;2023-01-29T03:23:55;0.40;99.90
32865;DHT22;19219;44.500;11.188;2023-01-29T03:26:42;0.40;99.90
32865;DHT22;19219;44.500;11.188;2023-01-29T03:29:30;0.30;99.90
32865;DHT22;19219;44.500;11.188;2023-01-29T03:32:16;0.40;99.90
32865;DHT22;19219;44.500;11.188;2023-01-29T03:34:48;0.40;99.90
32865;DHT22;19219;44.500;11.188;2023-01-29T03:39:44;0.30;99.90
32865;DHT22;19219;44.500;11.188;2023-01-29T03:42:39;0.20;99.90
32865;DHT22;19219;44.500;11.188;2023-01-29T03:46:20;0.20;99.90
32865;DHT22;19219;44.500;11.188;2023-01-29T03:48:44;0.10;99.90
32865;DHT22;19219;44.500;11.188;2023-01-29T03:51:35;0.00;99.90
32865;DHT22;19219;44.500;11.188;2023-01-29T03:54:16;0.00;99.90
32865;DHT22;19219;44.500;11.188;2023-01-29T03:57:08;-0.10;99.90
32865;DHT22;19219;44.500;11.188;2023-01-29T04:00:04;-0.10;99.90
32865;DHT22;19219;44.500;11.188;2023-01-29T04:05:28;-0.20;99.90
32865;DHT22;19219;44.500;11.188;2023-01-29T04:08:03;-0.20;99.90
32865;DHT22;19219;44.500;11.188;2023-01-29T04:10:30;-0.20;99.90
32865;DHT22;19219;44.500;11.188;2023-01-29T04:13:07;-0.20;99.90
32865;DHT22;19219;44.500;11.188;2023-01-29T04:15:38;-0.10;99.90
32865;DHT22;19219;44.500;11.188;2023-01-29T04:18:05;-0.10;99.90
32865;DHT22;19219;44.500;11.188;2023-01-29T04:20:31;-0.10;99.90
32865;DHT22;19219;44.500;11.188;2023-01-29T04:22:57;-0.20;99.90
32865;DHT22;19219;44.500;11.188;2023-01-29T04:25:26;-0.20;99.90
32865;DHT22;19219;44.500;11.188;2023-01-29T04:33:20;-0.10;99.90
32865;DHT22;19219;44.500;11.188;2023-01-29T04:36:01;-0.10;99.90
32865;DHT22;19219;44.500;11.188;2023-01-29T04:38:59;-0.10;99.90
32865;DHT22;19219;44.500;11.188;2023-01-29T04:41:37;-0.20;99.90
32865;DHT22;19219;44.500;11.188;2023-01-29T04:44:19;-0.10;99.90
32865;DHT22;19219;44.500;11.188;2023-01-29T04:47:06;-0.10;99.90
32865;DHT22;19219;44.500;11.188;2023-01-29T04:58:04;-0.30;99.90
32865;DHT22;19219;44.500;11.188;2023-01-29T05:00:36;-0.40;99.90
32865;DHT22;19219;44.500;11.188;2023-01-29T05:03:02;-0.40;99.90
32865;DHT22;19219;44.500;11.188;2023-01-29T05:05:29;-0.50;99.90
32865;DHT22;19219;44.500;11.188;2023-01-29T05:07:56;-0.30;99.90
32865;DHT22;19219;44.500;11.188;2023-01-29T05:10:23;-0.20;99.90
32865;DHT22;19219;44.500;11.188;2023-01-29T05:12:54;-0.30;99.90
32865;DHT22;19219;44.500;11.188;2023-01-29T05:15:29;-0.30;99.90
32865;DHT22;19219;44.500;11.188;2023-01-29T05:17:55;-0.40;99.90
32865;DHT22;19219;44.500;11.188;2023-01-29T05:20:26;-0.50;99.90
32865;DHT22;19219;44.500;11.188;2023-01-29T05:22:52;-0.50;99.90
32865;DHT22;19219;44.500;11.188;2023-01-29T05:25:27;-0.60;99.90
32865;DHT22;19219;44.500;11.188;2023-01-29T05:27:53;-0.50;99.90
32865;DHT22;19219;44.500;11.188;2023-01-29T05:30:38;-0.50;99.90
32865;DHT22;19219;44.500;11.188;2023-01-29T05:33:10;-0.50;99.90
32865;DHT22;19219;44.500;11.188;2023-01-29T05:35:36;-0.50;99.90
32865;DHT22;19219;44.500;11.188;2023-01-29T05:38:02;-0.50;99.90
32865;DHT22;19219;44.500;11.188;2023-01-29T05:40:28;-0.50;99.90
32865;DHT22;19219;44.500;11.188;2023-01-29T05:42:53;-0.40;99.90
32865;DHT22;19219;44.500;11.188;2023-01-29T05:45:19;-0.40;99.90
32865;DHT22;19219;44.500;11.188;2023-01-29T05:47:45;-0.40;99.90
32865;DHT22;19219;44.500;11.188;2023-01-29T05:50:12;-0.40;99.90
32865;DHT22;19219;44.500;11.188;2023-01-29T05:52:39;-0.40;99.90
32865;DHT22;19219;44.500;11.188;2023-01-29T05:55:05;-0.40;99.90
32865;DHT22;19219;44.500;11.188;2023-01-29T05:57:31;-0.40;99.90
32865;DHT22;19219;44.500;11.188;2023-01-29T05:59:56;-0.50;99.90
32865;DHT22;19219;44.500;11.188;2023-01-29T06:02:22;-0.50;99.90
32865;DHT22;19219;44.500;11.188;2023-01-29T06:04:50;-0.70;99.90
32865;DHT22;19219;44.500;11.188;2023-01-29T06:07:17;-0.60;99.90
32865;DHT22;19219;44.500;11.188;2023-01-29T06:09:42;-0.70;99.90
32865;DHT22;19219;44.500;11.188;2023-01-29T06:12:08;-0.70;99.90
32865;DHT22;19219;44.500;11.188;2023-01-29T06:14:34;-0.80;99.90
32865;DHT22;19219;44.500;11.188;2023-01-29T06:16:59;-0.70;99.90
32865;DHT22;19219;44.500;11.188;2023-01-29T06:19:25;-0.70;99.90
32865;DHT22;19219;44.500;11.188;2023-01-29T06:21:50;-0.30;99.90
32865;DHT22;19219;44.500;11.188;2023-01-29T06:24:16;-0.70;99.90
32865;DHT22;19219;44.500;11.188;2023-01-29T06:26:42;-0.70;99.90
32865;DHT22;19219;44.500;11.188;2023-01-29T06:29:07;-0.70;99.90
32865;DHT22;19219;44.500;11.188;2023-01-29T06:31:33;-0.70;99.90
32865;DHT22;19219;44.500;11.188;2023-01-29T06:33:59;-0.70;99.90
32865;DHT22;19219;44.500;11.188;2023-01-29T06:36:24;-0.70;99.90
32865;DHT22;19219;44.500;11.188;2023-01-29T06:38:50;-0.70;99.90
32865;DHT22;19219;44.500;11.188;2023-01-29T06:41:17;-0.60;99.90
32865;DHT22;19219;44.500;11.188;2023-01-29T06:43:44;-0.70;99.90
32865;DHT22;19219;44.500;11.188;2023-01-29T06:46:10;-0.60;99.90
32865;DHT22;19219;44.500;11.188;2023-01-29T06:48:36;-0.60;99.90
32865;DHT22;19219;44.500;11.188;2023-01-29T06:51:03;-0.60;99.90
32865;DHT22;19219;44.500;11.188;2023-01-29T06:53:29;-0.60;99.90
32865;DHT22;19219;44.500;11.188;2023-01-29T06:55:55;-0.60;99.90
32865;DHT22;19219;44.500;11.188;2023-01-29T06:58:21;-0.60;99.90
32865;DHT22;19219;44.500;11.188;2023-01-29T07:00:46;-0.50;99.90
32865;DHT22;19219;44.500;11.188;2023-01-29T07:03:12;-0.40;99.90
32865;DHT22;19219;44.500;11.188;2023-01-29T07:05:38;-0.30;99.90
32865;DHT22;19219;44.500;11.188;2023-01-29T07:08:04;-0.30;99.90
32865;DHT22;19219;44.500;11.188;2023-01-29T07:10:30;-0.30;99.90
32865;DHT22;19219;44.500;11.188;2023-01-29T07:12:58;-0.30;99.90
32865;DHT22;19219;44.500;11.188;2023-01-29T07:15:23;-0.30;99.90
32865;DHT22;19219;44.500;11.188;2023-01-29T07:20:26;0.00;99.90
32865;DHT22;19219;44.500;11.188;2023-01-29T07:22:52;0.10;99.90
32865;DHT22;19219;44.500;11.188;2023-01-29T07:25:19;0.10;99.90
32865;DHT22;19219;44.500;11.188;2023-01-29T07:27:44;0.10;99.90
32865;DHT22;19219;44.500;11.188;2023-01-29T07:30:10;0.20;99.90
32865;DHT22;19219;44.500;11.188;2023-01-29T07:32:36;0.30;99.90
32865;DHT22;19219;44.500;11.188;2023-01-29T07:35:02;0.40;99.90
32865;DHT22;19219;44.500;11.188;2023-01-29T07:37:27;0.50;99.90
32865;DHT22;19219;44.500;11.188;2023-01-29T07:39:53;0.50;99.90
32865;DHT22;19219;44.500;11.188;2023-01-29T07:42:19;0.60;99.90
32865;DHT22;19219;44.500;11.188;2023-01-29T07:44:44;0.70;99.90
32865;DHT22;19219;44.500;11.188;2023-01-29T07:47:11;0.80;99.90
32865;DHT22;19219;44.500;11.188;2023-01-29T07:49:36;1.00;99.90
32865;DHT22;19219;44.500;11.188;2023-01-29T07:52:02;1.00;99.90
32865;DHT22;19219;44.500;11.188;2023-01-29T07:54:29;1.20;99.90
32865;DHT22;19219;44.500;11.188;2023-01-29T07:56:54;1.30;99.90
32865;DHT22;19219;44.500;11.188;2023-01-29T07:59:20;1.50;99.90
32865;DHT22;19219;44.500;11.188;2023-01-29T08:01:46;1.60;99.90
32865;DHT22;19219;44.500;11.188;2023-01-29T08:04:11;1.80;99.90
32865;DHT22;19219;44.500;11.188;2023-01-29T08:06:37;1.90;99.90
32865;DHT22;19219;44.500;11.188;2023-01-29T08:09:02;2.00;99.90
32865;DHT22;19219;44.500;11.188;2023-01-29T08:11:28;2.20;99.90
32865;DHT22;19219;44.500;11.188;2023-01-29T08:13:54;2.20;99.90
32865;DHT22;19219;44.500;11.188;2023-01-29T08:16:21;2.40;99.90
32865;DHT22;19219;44.500;11.188;2023-01-29T08:18:46;3.30;99.90
32865;DHT22;19219;44.500;11.188;2023-01-29T08:21:13;5.30;99.90
32865;DHT22;19219;44.500;11.188;2023-01-29T08:23:39;7.50;99.90
32865;DHT22;19219;44.500;11.188;2023-01-29T08:26:05;9.70;99.90
32865;DHT22;19219;44.500;11.188;2023-01-29T08:28:31;11.70;99.90
32865;DHT22;19219;44.500;11.188;2023-01-29T08:30:57;13.40;99.90
32865;DHT22;19219;44.500;11.188;2023-01-29T08:33:23;14.80;99.90
32865;DHT22;19219;44.500;11.188;2023-01-29T08:35:50;16.00;96.10
32865;DHT22;19219;44.500;11.188;2023-01-29T08:38:16;16.80;91.60
32865;DHT22;19219;44.500;11.188;2023-01-29T08:40:42;16.90;84.60
32865;DHT22;19219;44.500;11.188;2023-01-29T08:43:10;17.70;81.90
32865;DHT22;19219;44.500;11.188;2023-01-29T08:45:39;18.20;77.40
32865;DHT22;19219;44.500;11.188;2023-01-29T08:48:05;18.80;72.30
32865;DHT22;19219;44.500;11.188;2023-01-29T08:50:31;19.00;67.90
32865;DHT22;19219;44.500;11.188;2023-01-29T08:53:00;19.20;66.20
32865;DHT22;19219;44.500;11.188;2023-01-29T08:55:26;19.10;63.60
32865;DHT22;19219;44.500;11.188;2023-01-29T08:57:52;18.70;62.30
32865;DHT22;19219;44.500;11.188;2023-01-29T09:00:18;18.10;61.70
32865;DHT22;19219;44.500;11.188;2023-01-29T09:02:44;18.10;62.10
32865;DHT22;19219;44.500;11.188;2023-01-29T09:05:09;18.60;61.50
32865;DHT22;19219;44.500;11.188;2023-01-29T09:07:35;18.90;59.30
32865;DHT22;19219;44.500;11.188;2023-01-29T09:10:01;18.80;58.00
32865;DHT22;19219;44.500;11.188;2023-01-29T09:12:27;19.00;58.10
32865;DHT22;19219;44.500;11.188;2023-01-29T09:14:52;18.80;56.80
32865;DHT22;19219;44.500;11.188;2023-01-29T09:17:18;18.60;56.60
32865;DHT22;19219;44.500;11.188;2023-01-29T09:19:44;19.10;56.30
32865;DHT22;19219;44.500;11.188;2023-01-29T09:22:10;19.40;55.80
32865;DHT22;19219;44.500;11.188;2023-01-29T09:24:35;19.20;54.90
32865;DHT22;19219;44.500;11.188;2023-01-29T09:27:01;19.40;55.00
32865;DHT22;19219;44.500;11.188;2023-01-29T09:29:27;19.80;54.30
32865;DHT22;19219;44.500;11.188;2023-01-29T09:31:52;20.00;53.60
32865;DHT22;19219;44.500;11.188;2023-01-29T09:34:18;19.70;53.10
32865;DHT22;19219;44.500;11.188;2023-01-29T09:36:43;19.20;54.00
32865;DHT22;19219;44.500;11.188;2023-01-29T09:39:09;18.80;54.60
32865;DHT22;19219;44.500;11.188;2023-01-29T09:44:47;18.90;54.00
32865;DHT22;19219;44.500;11.188;2023-01-29T09:47:15;19.00;54.00
32865;DHT22;19219;44.500;11.188;2023-01-29T09:49:54;19.50;54.20
32865;DHT22;19219;44.500;11.188;2023-01-29T09:52:29;19.90;52.90
32865;DHT22;19219;44.500;11.188;2023-01-29T09:55:26;20.30;52.80
32865;DHT22;19219;44.500;11.188;2023-01-29T09:58:02;21.20;51.40
32865;DHT22;19219;44.500;11.188;2023-01-29T10:08:53;19.90;51.00
32865;DHT22;19219;44.500;11.188;2023-01-29T10:14:20;20.40;50.40
32865;DHT22;19219;44.500;11.188;2023-01-29T10:20:15;20.60;49.20
32865;DHT22;19219;44.500;11.188;2023-01-29T10:22:56;20.60;48.80
32865;DHT22;19219;44.500;11.188;2023-01-29T10:25:24;20.40;48.70
32865;DHT22;19219;44.500;11.188;2023-01-29T10:27:53;19.80;48.90
32865;DHT22;19219;44.500;11.188;2023-01-29T10:32:55;19.50;49.60
32865;DHT22;19219;44.500;11.188;2023-01-29T10:35:27;19.50;49.30
32865;DHT22;19219;44.500;11.188;2023-01-29T10:37:58;19.60;49.50
32865;DHT22;19219;44.500;11.188;2023-01-29T10:40:37;19.20;49.60
32865;DHT22;19219;44.500;11.188;2023-01-29T10:43:28;19.30;50.10
32865;DHT22;19219;44.500;11.188;2023-01-29T10:49:27;19.10;50.60
32865;DHT22;19219;44.500;11.188;2023-01-29T10:52:17;17.70;50.80
32865;DHT22;19219;44.500;11.188;2023-01-29T10:58:00;17.50;53.30
32865;DHT22;19219;44.500;11.188;2023-01-29T11:00:38;17.80;53.30
32865;DHT22;19219;44.500;11.188;2023-01-29T11:03:17;18.10;53.40
32865;DHT22;19219;44.500;11.188;2023-01-29T11:08:33;17.90;53.80
32865;DHT22;19219;44.500;11.188;2023-01-29T11:11:08;17.50;54.50
32865;DHT22;19219;44.500;11.188;2023-01-29T11:13:41;16.80;55.50
32865;DHT22;19219;44.500;11.188;2023-01-29T11:16:09;16.30;56.20
32865;DHT22;19219;44.500;11.188;2023-01-29T11:18:50;15.90;57.50
32865;DHT22;19219;44.500;11.188;2023-01-29T11:21:16;14.80;58.50
32865;DHT22;19219;44.500;11.188;2023-01-29T11:23:41;13.80;60.90
32865;DHT22;19219;44.500;11.188;2023-01-29T11:26:11;13.30;64.60
32865;DHT22;19219;44.500;11.188;2023-01-29T11:28:45;12.80;66.30
32865;DHT22;19219;44.500;11.188;2023-01-29T11:31:26;12.10;69.60
32865;DHT22;19219;44.500;11.188;2023-01-29T11:34:04;12.00;71.70
32865;DHT22;19219;44.500;11.188;2023-01-29T11:36:34;11.70;74.00
32865;DHT22;19219;44.500;11.188;2023-01-29T11:44:29;11.60;83.00
32865;DHT22;19219;44.500;11.188;2023-01-29T11:46:58;11.50;84.10
32865;DHT22;19219;44.500;11.188;2023-01-29T11:49:33;11.50;84.00
32865;DHT22;19219;44.500;11.188;2023-01-29T11:52:02;11.60;85.70
32865;DHT22;19219;44.500;11.188;2023-01-29T11:54:33;11.40;87.10
32865;DHT22;19219;44.500;11.188;2023-01-29T11:57:00;11.50;87.10
32865;DHT22;19219;44.500;11.188;2023-01-29T11:59:45;11.00;87.80
32865;DHT22;19219;44.500;11.188;2023-01-29T12:02:27;11.00;90.00
32865;DHT22;19219;44.500;11.188;2023-01-29T12:04:59;10.80;91.10
32865;DHT22;19219;44.500;11.188;2023-01-29T12:07:27;10.60;91.10
32865;DHT22;19219;44.500;11.188;2023-01-29T12:09:56;10.50;92.00
32865;DHT22;19219;44.500;11.188;2023-01-29T12:12:29;10.40;92.40
32865;DHT22;19219;44.500;11.188;2023-01-29T12:15:04;10.40;92.70
32865;DHT22;19219;44.500;11.188;2023-01-29T12:17:32;10.50;93.40
32865;DHT22;19219;44.500;11.188;2023-01-29T12:20:05;10.50;93.90
32865;DHT22;19219;44.500;11.188;2023-01-29T12:22:39;10.60;94.40
32865;DHT22;19219;44.500;11.188;2023-01-29T12:25:24;10.50;94.20
32865;DHT22;19219;44.500;11.188;2023-01-29T12:27:59;10.60;94.30
32865;DHT22;19219;44.500;11.188;2023-01-29T12:30:36;10.80;94.30
32865;DHT22;19219;44.500;11.188;2023-01-29T12:33:18;10.60;94.70
32865;DHT22;19219;44.500;11.188;2023-01-29T12:35:53;10.40;95.20
32865;DHT22;19219;44.500;11.188;2023-01-29T12:38:21;10.30;95.20
32865;DHT22;19219;44.500;11.188;2023-01-29T12:40:48;10.30;95.60
32865;DHT22;19219;44.500;11.188;2023-01-29T12:43:30;10.30;95.80
32865;DHT22;19219;44.500;11.188;2023-01-29T12:45:58;10.30;95.80
32865;DHT22;19219;44.500;11.188;2023-01-29T12:48:31;10.10;96.00
32865;DHT22;19219;44.500;11.188;2023-01-29T12:51:18;10.10;95.50
32865;DHT22;19219;44.500;11.188;2023-01-29T12:53:56;10.10;95.70
32865;DHT22;19219;44.500;11.188;2023-01-29T12:56:48;10.20;95.60
32865;DHT22;19219;44.500;11.188;2023-01-29T13:05:14;10.10;95.90
32865;DHT22;19219;44.500;11.188;2023-01-29T13:07:43;10.00;95.60
32865;DHT22;19219;44.500;11.188;2023-01-29T13:10:22;10.00;95.60
32865;DHT22;19219;44.500;11.188;2023-01-29T13:13:04;10.10;95.60
32865;DHT22;19219;44.500;11.188;2023-01-29T13:15:35;10.10;94.60
32865;DHT22;19219;44.500;11.188;2023-01-29T13:21:14;9.90;96.30
32865;DHT22;19219;44.500;11.188;2023-01-29T13:23:50;9.90;96.60
32865;DHT22;19219;44.500;11.188;2023-01-29T13:26:21;10.00;96.80
32865;DHT22;19219;44.500;11.188;2023-01-29T13:28:48;10.00;96.70
32865;DHT22;19219;44.500;11.188;2023-01-29T13:36:44;9.90;97.70
32865;DHT22;19219;44.500;11.188;2023-01-29T13:39:30;9.90;97.40
32865;DHT22;19219;44.500;11.188;2023-01-29T13:41:58;10.00;96.50
32865;DHT22;19219;44.500;11.188;2023-01-29T13:44:31;10.10;96.30
32865;DHT22;19219;44.500;11.188;2023-01-29T13:47:00;10.20;96.40
32865;DHT22;19219;44.500;11.188;2023-01-29T13:49:28;10.10;96.30
32865;DHT22;19219;44.500;11.188;2023-01-29T13:51:56;10.10;98.20
32865;DHT22;19219;44.500;11.188;2023-01-29T13:54:24;10.20;97.60
32865;DHT22;19219;44.500;11.188;2023-01-29T13:56:59;10.30;97.40
32865;DHT22;19219;44.500;11.188;2023-01-29T13:59:47;10.30;97.20
32865;DHT22;19219;44.500;11.188;2023-01-29T14:02:23;10.40;97.00
32865;DHT22;19219;44.500;11.188;2023-01-29T14:04:49;10.40;96.70
32865;DHT22;19219;44.500;11.188;2023-01-29T14:07:37;10.30;97.20
32865;DHT22;19219;44.500;11.188;2023-01-29T14:10:18;10.20;97.10
32865;DHT22;19219;44.500;11.188;2023-01-29T14:12:45;10.30;96.90
32865;DHT22;19219;44.500;11.188;2023-01-29T14:17:56;9.60;98.60
32865;DHT22;19219;44.500;11.188;2023-01-29T14:20:37;9.50;99.30
32865;DHT22;19219;44.500;11.188;2023-01-29T14:23:04;9.60;99.20
32865;DHT22;19219;44.500;11.188;2023-01-29T14:25:34;9.50;98.90
32865;DHT22;19219;44.500;11.188;2023-01-29T14:28:02;9.60;99.10
32865;DHT22;19219;44.500;11.188;2023-01-29T14:30:33;9.70;99.00
32865;DHT22;19219;44.500;11.188;2023-01-29T14:32:59;9.80;99.20
32865;DHT22;19219;44.500;11.188;2023-01-29T14:35:29;9.80;98.70
32865;DHT22;19219;44.500;11.188;2023-01-29T14:37:57;9.90;98.50
32865;DHT22;19219;44.500;11.188;2023-01-29T14:40:25;9.90;97.90
32865;DHT22;19219;44.500;11.188;2023-01-29T14:45:39;9.80;98.00
32865;DHT22;19219;44.500;11.188;2023-01-29T14:58:41;9.70;98.50
32865;DHT22;19219;44.500;11.188;2023-01-29T15:01:34;9.60;98.00
32865;DHT22;19219;44.500;11.188;2023-01-29T15:04:23;9.60;97.80
32865;DHT22;19219;44.500;11.188;2023-01-29T15:09:46;9.60;98.30
32865;DHT22;19219;44.500;11.188;2023-01-29T15:15:34;9.60;98.40
32865;DHT22;19219;44.500;11.188;2023-01-29T15:20:31;9.70;98.50
32865;DHT22;19219;44.500;11.188;2023-01-29T15:22:58;9.60;98.50
32865;DHT22;19219;44.500;11.188;2023-01-29T15:25:24;9.40;98.90
32865;DHT22;19219;44.500;11.188;2023-01-29T15:27:53;9.30;99.40
32865;DHT22;19219;44.500;11.188;2023-01-29T15:30:39;9.20;99.60
32865;DHT22;19219;44.500;11.188;2023-01-29T15:33:08;9.20;99.90
32865;DHT22;19219;44.500;11.188;2023-01-29T15:35:37;9.20;99.90
32865;DHT22;19219;44.500;11.188;2023-01-29T15:38:16;9.20;99.80
32865;DHT22;19219;44.500;11.188;2023-01-29T15:40:53;9.20;99.90
32865;DHT22;19219;44.500;11.188;2023-01-29T15:43:25;9.20;99.90
32865;DHT22;19219;44.500;11.188;2023-01-29T15:45:52;9.10;99.90
32865;DHT22;19219;44.500;11.188;2023-01-29T15:48:26;9.00;99.90
32865;DHT22;19219;44.500;11.188;2023-01-29T15:50:55;9.00;99.90
32865;DHT22;19219;44.500;11.188;2023-01-29T15:53:27;8.90;99.90
32865;DHT22;19219;44.500;11.188;2023-01-29T15:55:54;8.70;99.90
32865;DHT22;19219;44.500;11.188;2023-01-29T15:58:28;8.60;99.90
32865;DHT22;19219;44.500;11.188;2023-01-29T16:00:55;8.50;99.90
32865;DHT22;19219;44.500;11.188;2023-01-29T16:03:25;8.20;99.90
32865;DHT22;19219;44.500;11.188;2023-01-29T16:05:53;8.00;99.90
32865;DHT22;19219;44.500;11.188;2023-01-29T16:08:20;7.80;99.90
32865;DHT22;19219;44.500;11.188;2023-01-29T16:10:51;7.50;99.90
32865;DHT22;19219;44.500;11.188;2023-01-29T16:13:28;7.20;99.90
32865;DHT22;19219;44.500;11.188;2023-01-29T16:16:00;6.90;99.90
32865;DHT22;19219;44.500;11.188;2023-01-29T16:18:35;6.70;99.90
32865;DHT22;19219;44.500;11.188;2023-01-29T16:21:14;6.40;99.90
32865;DHT22;19219;44.500;11.188;2023-01-29T16:23:50;6.20;99.90
32865;DHT22;19219;44.500;11.188;2023-01-29T16:26:28;6.10;99.90
32865;DHT22;19219;44.500;11.188;2023-01-29T16:28:56;5.90;99.90
32865;DHT22;19219;44.500;11.188;2023-01-29T16:31:28;5.80;99.90
32865;DHT22;19219;44.500;11.188;2023-01-29T16:33:58;5.70;99.90
32865;DHT22;19219;44.500;11.188;2023-01-29T16:36:30;5.60;99.90
32865;DHT22;19219;44.500;11.188;2023-01-29T16:39:05;5.50;99.90
32865;DHT22;19219;44.500;11.188;2023-01-29T16:41:37;5.30;99.90
32865;DHT22;19219;44.500;11.188;2023-01-29T16:44:35;5.20;99.90
32865;DHT22;19219;44.500;11.188;2023-01-29T16:47:10;5.10;99.90
32865;DHT22;19219;44.500;11.188;2023-01-29T16:52:26;4.80;99.90
32865;DHT22;19219;44.500;11.188;2023-01-29T16:54:58;4.60;99.90
32865;DHT22;19219;44.500;11.188;2023-01-29T16:57:31;4.40;99.90
32865;DHT22;19219;44.500;11.188;2023-01-29T17:00:00;4.30;99.90
32865;DHT22;19219;44.500;11.188;2023-01-29T17:02:30;4.30;99.90
32865;DHT22;19219;44.500;11.188;2023-01-29T17:05:05;4.10;99.90
32865;DHT22;19219;44.500;11.188;2023-01-29T17:07:35;3.90;99.90
32865;DHT22;19219;44.500;11.188;2023-01-29T17:10:04;3.80;99.90
32865;DHT22;19219;44.500;11.188;2023-01-29T17:12:31;3.80;99.90
32865;DHT22;19219;44.500;11.188;2023-01-29T17:15:03;3.70;99.90
32865;DHT22;19219;44.500;11.188;2023-01-29T17:17:31;3.70;99.90
32865;DHT22;19219;44.500;11.188;2023-01-29T17:19:58;3.60;99.90
32865;DHT22;19219;44.500;11.188;2023-01-29T17:22:27;3.60;99.90
32865;DHT22;19219;44.500;11.188;2023-01-29T17:24:52;3.50;99.90
32865;DHT22;19219;44.500;11.188;2023-01-29T17:27:20;3.40;99.90
32865;DHT22;19219;44.500;11.188;2023-01-29T17:29:47;3.40;99.90
32865;DHT22;19219;44.500;11.188;2023-01-29T17:32:13;3.30;99.90
32865;DHT22;19219;44.500;11.188;2023-01-29T17:34:39;3.30;99.90
32865;DHT22;19219;44.500;11.188;2023-01-29T17:37:04;3.20;99.90
32865;DHT22;19219;44.500;11.188;2023-01-29T17:39:31;3.10;99.90
32865;DHT22;19219;44.500;11.188;2023-01-29T17:41:57;3.00;99.90
32865;DHT22;19219;44.500;11.188;2023-01-29T17:44:24;3.00;99.90
32865;DHT22;19219;44.500;11.188;2023-01-29T17:46:53;3.00;99.90